sensor_id;sensor_type;location;lat;lon;timestamp;temperature;humidity
6696;DHT22;3385;48.928;10.330;2022-12-20T00:01:09;-0.60;99.90
6696;DHT22;3385;48.928;10.330;2022-12-20T00:03:36;-0.60;99.90
6696;DHT22;3385;48.928;10.330;2022-12-20T00:06:02;-0.60;99.90
6696;DHT22;3385;48.928;10.330;2022-12-20T00:08:29;-0.60;99.90
6696;DHT22;3385;48.928;10.330;2022-12-20T00:10:55;-0.50;99.90
6696;DHT22;3385;48.928;10.330;2022-12-20T00:13:20;-0.60;99.90
6696;DHT22;3385;48.928;10.330;2022-12-20T00:15:48;-0.60;99.90
6696;DHT22;3385;48.928;10.330;2022-12-20T00:18:14;-0.50;99.90
6696;DHT22;3385;48.928;10.330;2022-12-20T00:20:39;-0.60;99.90
6696;DHT22;3385;48.928;10.330;2022-12-20T00:23:05;-0.50;99.90
6696;DHT22;3385;48.928;10.330;2022-12-20T00:25:31;-0.50;99.90
6696;DHT22;3385;48.928;10.330;2022-12-20T00:27:56;-0.50;99.90
6696;DHT22;3385;48.928;10.330;2022-12-20T00:30:22;-0.50;99.90
6696;DHT22;3385;48.928;10.330;2022-12-20T00:32:48;-0.50;99.90
6696;DHT22;3385;48.928;10.330;2022-12-20T00:35:13;-0.50;99.90
6696;DHT22;3385;48.928;10.330;2022-12-20T00:37:39;-0.60;99.90
6696;DHT22;3385;48.928;10.330;2022-12-20T00:40:06;-0.50;99.90
6696;DHT22;3385;48.928;10.330;2022-12-20T00:42:32;-0.60;99.90
6696;DHT22;3385;48.928;10.330;2022-12-20T00:44:57;-0.60;99.90
6696;DHT22;3385;48.928;10.330;2022-12-20T00:47:23;-0.60;99.90
6696;DHT22;3385;48.928;10.330;2022-12-20T00:49:49;-0.70;99.90
6696;DHT22;3385;48.928;10.330;2022-12-20T00:52:15;-0.70;99.90
6696;DHT22;3385;48.928;10.330;2022-12-20T00:54:40;-0.70;99.90
6696;DHT22;3385;48.928;10.330;2022-12-20T00:57:06;-0.60;99.90
6696;DHT22;3385;48.928;10.330;2022-12-20T00:59:32;-0.70;99.90
6696;DHT22;3385;48.928;10.330;2022-12-20T01:01:58;-0.60;99.90
6696;DHT22;3385;48.928;10.330;2022-12-20T01:04:24;-0.60;99.90
6696;DHT22;3385;48.928;10.330;2022-12-20T01:06:50;-0.70;99.90
6696;DHT22;3385;48.928;10.330;2022-12-20T01:09:15;-0.70;99.90
6696;DHT22;3385;48.928;10.330;2022-12-20T01:11:41;-0.70;99.90
6696;DHT22;3385;48.928;10.330;2022-12-20T01:14:12;-0.60;99.90
6696;DHT22;3385;48.928;10.330;2022-12-20T01:16:41;-0.60;99.90
6696;DHT22;3385;48.928;10.330;2022-12-20T01:19:09;-0.60;99.90
6696;DHT22;3385;48.928;10.330;2022-12-20T01:21:35;-0.60;99.90
6696;DHT22;3385;48.928;10.330;2022-12-20T01:24:02;-0.60;99.90
6696;DHT22;3385;48.928;10.330;2022-12-20T01:26:28;-0.60;99.90
6696;DHT22;3385;48.928;10.330;2022-12-20T01:28:56;-0.50;99.90
6696;DHT22;3385;48.928;10.330;2022-12-20T01:31:23;-0.50;99.90
6696;DHT22;3385;48.928;10.330;2022-12-20T01:33:51;-0.50;99.90
6696;DHT22;3385;48.928;10.330;2022-12-20T01:36:20;-0.50;99.90
6696;DHT22;3385;48.928;10.330;2022-12-20T01:38:47;-0.60;99.90
6696;DHT22;3385;48.928;10.330;2022-12-20T01:41:21;-0.60;99.90
6696;DHT22;3385;48.928;10.330;2022-12-20T01:44:05;-0.60;99.90
6696;DHT22;3385;48.928;10.330;2022-12-20T01:46:33;-0.60;99.90
6696;DHT22;3385;48.928;10.330;2022-12-20T01:49:20;-0.70;99.90
6696;DHT22;3385;48.928;10.330;2022-12-20T01:51:55;-0.70;99.90
6696;DHT22;3385;48.928;10.330;2022-12-20T01:54:47;-0.70;99.90
6696;DHT22;3385;48.928;10.330;2022-12-20T01:57:21;-0.70;99.90
6696;DHT22;3385;48.928;10.330;2022-12-20T01:59:50;-0.70;99.90
6696;DHT22;3385;48.928;10.330;2022-12-20T02:02:17;-0.70;99.90
6696;DHT22;3385;48.928;10.330;2022-12-20T02:04:43;-0.70;99.90
6696;DHT22;3385;48.928;10.330;2022-12-20T02:07:23;-0.60;99.90
6696;DHT22;3385;48.928;10.330;2022-12-20T02:09:49;-0.60;99.90
6696;DHT22;3385;48.928;10.330;2022-12-20T02:12:21;-0.60;99.90
6696;DHT22;3385;48.928;10.330;2022-12-20T02:20:36;-0.70;99.90
6696;DHT22;3385;48.928;10.330;2022-12-20T02:23:54;-0.80;99.90
6696;DHT22;3385;48.928;10.330;2022-12-20T02:31:38;-0.90;99.90
6696;DHT22;3385;48.928;10.330;2022-12-20T02:34:07;-0.90;99.90
6696;DHT22;3385;48.928;10.330;2022-12-20T02:36:34;-1.00;99.90
6696;DHT22;3385;48.928;10.330;2022-12-20T02:39:00;-1.00;99.90
6696;DHT22;3385;48.928;10.330;2022-12-20T02:41:31;-1.00;99.90
6696;DHT22;3385;48.928;10.330;2022-12-20T02:44:03;-1.10;99.90
6696;DHT22;3385;48.928;10.330;2022-12-20T02:46:49;-1.10;99.90
6696;DHT22;3385;48.928;10.330;2022-12-20T02:49:19;-1.20;99.90
6696;DHT22;3385;48.928;10.330;2022-12-20T02:51:48;-1.30;99.90
6696;DHT22;3385;48.928;10.330;2022-12-20T02:54:17;-1.30;99.90
6696;DHT22;3385;48.928;10.330;2022-12-20T02:57:20;-1.30;99.90
6696;DHT22;3385;48.928;10.330;2022-12-20T03:02:23;-1.40;99.90
6696;DHT22;3385;48.928;10.330;2022-12-20T03:04:50;-1.30;99.90
6696;DHT22;3385;48.928;10.330;2022-12-20T03:07:16;-1.30;99.90
6696;DHT22;3385;48.928;10.330;2022-12-20T03:09:43;-1.30;99.90
6696;DHT22;3385;48.928;10.330;2022-12-20T03:12:11;-1.40;99.90
6696;DHT22;3385;48.928;10.330;2022-12-20T03:14:38;-1.40;99.90
6696;DHT22;3385;48.928;10.330;2022-12-20T03:17:05;-1.50;99.90
6696;DHT22;3385;48.928;10.330;2022-12-20T03:19:31;-1.50;99.90
6696;DHT22;3385;48.928;10.330;2022-12-20T03:21:57;-1.50;99.90
6696;DHT22;3385;48.928;10.330;2022-12-20T03:24:23;-1.50;99.90
6696;DHT22;3385;48.928;10.330;2022-12-20T03:26:48;-1.60;99.90
6696;DHT22;3385;48.928;10.330;2022-12-20T03:29:14;-1.60;99.90
6696;DHT22;3385;48.928;10.330;2022-12-20T03:31:40;-1.60;99.90
6696;DHT22;3385;48.928;10.330;2022-12-20T03:34:06;-1.70;99.90
6696;DHT22;3385;48.928;10.330;2022-12-20T03:36:31;-1.60;99.90
6696;DHT22;3385;48.928;10.330;2022-12-20T03:38:57;-3.90;99.90
6696;DHT22;3385;48.928;10.330;2022-12-20T03:41:23;-1.60;99.90
6696;DHT22;3385;48.928;10.330;2022-12-20T03:43:49;-1.60;99.90
6696;DHT22;3385;48.928;10.330;2022-12-20T03:46:15;-1.60;99.90
6696;DHT22;3385;48.928;10.330;2022-12-20T03:48:41;-1.50;99.90
6696;DHT22;3385;48.928;10.330;2022-12-20T03:51:07;-1.50;99.90
6696;DHT22;3385;48.928;10.330;2022-12-20T03:53:33;-1.60;99.90
6696;DHT22;3385;48.928;10.330;2022-12-20T03:55:59;-1.50;99.90
6696;DHT22;3385;48.928;10.330;2022-12-20T03:58:25;-1.50;99.90
6696;DHT22;3385;48.928;10.330;2022-12-20T04:00:50;-1.50;99.90
6696;DHT22;3385;48.928;10.330;2022-12-20T04:03:16;-1.60;99.90
6696;DHT22;3385;48.928;10.330;2022-12-20T04:05:42;-1.50;99.90
6696;DHT22;3385;48.928;10.330;2022-12-20T04:08:08;-1.50;99.90
6696;DHT22;3385;48.928;10.330;2022-12-20T04:10:34;-1.50;99.90
6696;DHT22;3385;48.928;10.330;2022-12-20T04:13:19;-1.50;99.90
6696;DHT22;3385;48.928;10.330;2022-12-20T04:15:45;-1.50;99.90
6696;DHT22;3385;48.928;10.330;2022-12-20T04:18:11;-1.60;99.90
6696;DHT22;3385;48.928;10.330;2022-12-20T04:20:36;-1.60;99.90
6696;DHT22;3385;48.928;10.330;2022-12-20T04:23:02;-1.60;99.90
6696;DHT22;3385;48.928;10.330;2022-12-20T04:25:28;-1.60;99.90
6696;DHT22;3385;48.928;10.330;2022-12-20T04:27:53;-1.50;99.90
6696;DHT22;3385;48.928;10.330;2022-12-20T04:30:19;-1.50;99.90
6696;DHT22;3385;48.928;10.330;2022-12-20T04:32:45;-1.50;99.90
6696;DHT22;3385;48.928;10.330;2022-12-20T04:35:10;-1.50;99.90
6696;DHT22;3385;48.928;10.330;2022-12-20T04:37:36;-1.50;99.90
6696;DHT22;3385;48.928;10.330;2022-12-20T04:40:03;-1.60;99.90
6696;DHT22;3385;48.928;10.330;2022-12-20T04:42:29;-1.70;99.90
6696;DHT22;3385;48.928;10.330;2022-12-20T04:44:54;-1.80;99.90
6696;DHT22;3385;48.928;10.330;2022-12-20T04:47:20;-1.80;99.90
6696;DHT22;3385;48.928;10.330;2022-12-20T04:49:46;-1.80;99.90
6696;DHT22;3385;48.928;10.330;2022-12-20T04:52:11;-1.80;99.90
6696;DHT22;3385;48.928;10.330;2022-12-20T04:54:55;-1.70;99.90
6696;DHT22;3385;48.928;10.330;2022-12-20T04:57:21;-1.70;99.90
6696;DHT22;3385;48.928;10.330;2022-12-20T04:59:47;-1.80;99.90
6696;DHT22;3385;48.928;10.330;2022-12-20T05:02:12;-1.80;99.90
6696;DHT22;3385;48.928;10.330;2022-12-20T05:04:38;-1.80;99.90
6696;DHT22;3385;48.928;10.330;2022-12-20T05:07:04;-1.80;99.90
6696;DHT22;3385;48.928;10.330;2022-12-20T05:09:29;-1.70;99.90
6696;DHT22;3385;48.928;10.330;2022-12-20T05:11:55;-1.50;99.90
6696;DHT22;3385;48.928;10.330;2022-12-20T05:14:21;-1.30;99.90
6696;DHT22;3385;48.928;10.330;2022-12-20T05:16:46;-1.20;99.90
6696;DHT22;3385;48.928;10.330;2022-12-20T05:19:12;-1.20;99.90
6696;DHT22;3385;48.928;10.330;2022-12-20T05:21:38;-1.10;99.90
6696;DHT22;3385;48.928;10.330;2022-12-20T05:24:22;-1.00;99.90
6696;DHT22;3385;48.928;10.330;2022-12-20T05:27:06;-1.00;99.90
6696;DHT22;3385;48.928;10.330;2022-12-20T05:29:32;-1.00;99.90
6696;DHT22;3385;48.928;10.330;2022-12-20T05:31:58;-0.90;99.90
6696;DHT22;3385;48.928;10.330;2022-12-20T05:34:23;-0.90;99.90
6696;DHT22;3385;48.928;10.330;2022-12-20T05:36:49;-0.80;99.90
6696;DHT22;3385;48.928;10.330;2022-12-20T05:39:15;-0.70;99.90
6696;DHT22;3385;48.928;10.330;2022-12-20T05:41:41;-0.60;99.90
6696;DHT22;3385;48.928;10.330;2022-12-20T05:44:07;-0.60;99.90
6696;DHT22;3385;48.928;10.330;2022-12-20T05:46:32;-0.60;99.90
6696;DHT22;3385;48.928;10.330;2022-12-20T05:48:58;-0.50;99.90
6696;DHT22;3385;48.928;10.330;2022-12-20T05:51:24;-0.50;99.90
6696;DHT22;3385;48.928;10.330;2022-12-20T05:53:50;-0.50;99.90
6696;DHT22;3385;48.928;10.330;2022-12-20T05:56:16;-0.40;99.90
6696;DHT22;3385;48.928;10.330;2022-12-20T05:58:42;-0.40;99.90
6696;DHT22;3385;48.928;10.330;2022-12-20T06:01:08;-0.40;99.90
6696;DHT22;3385;48.928;10.330;2022-12-20T06:03:35;-0.40;99.90
6696;DHT22;3385;48.928;10.330;2022-12-20T06:06:01;-0.40;99.90
6696;DHT22;3385;48.928;10.330;2022-12-20T06:08:26;-0.40;99.90
6696;DHT22;3385;48.928;10.330;2022-12-20T06:10:52;-2.50;99.90
6696;DHT22;3385;48.928;10.330;2022-12-20T06:13:18;-0.50;99.90
6696;DHT22;3385;48.928;10.330;2022-12-20T06:15:44;-0.40;99.90
6696;DHT22;3385;48.928;10.330;2022-12-20T06:18:09;-0.40;99.90
6696;DHT22;3385;48.928;10.330;2022-12-20T06:20:36;-0.40;99.90
6696;DHT22;3385;48.928;10.330;2022-12-20T06:23:02;-0.20;99.90
6696;DHT22;3385;48.928;10.330;2022-12-20T06:25:28;-0.20;99.90
6696;DHT22;3385;48.928;10.330;2022-12-20T06:27:54;-0.20;99.90
6696;DHT22;3385;48.928;10.330;2022-12-20T06:30:20;-0.20;99.90
6696;DHT22;3385;48.928;10.330;2022-12-20T06:32:46;-0.20;99.90
6696;DHT22;3385;48.928;10.330;2022-12-20T06:35:12;-0.20;99.90
6696;DHT22;3385;48.928;10.330;2022-12-20T06:37:39;-0.20;99.90
6696;DHT22;3385;48.928;10.330;2022-12-20T06:40:10;-0.10;99.90
6696;DHT22;3385;48.928;10.330;2022-12-20T06:42:37;-0.10;99.90
6696;DHT22;3385;48.928;10.330;2022-12-20T06:45:03;0.00;99.90
6696;DHT22;3385;48.928;10.330;2022-12-20T06:47:29;0.00;99.90
6696;DHT22;3385;48.928;10.330;2022-12-20T06:49:55;0.00;99.90
6696;DHT22;3385;48.928;10.330;2022-12-20T06:52:21;0.00;99.90
6696;DHT22;3385;48.928;10.330;2022-12-20T06:54:47;0.00;99.90
6696;DHT22;3385;48.928;10.330;2022-12-20T06:57:12;0.10;99.90
6696;DHT22;3385;48.928;10.330;2022-12-20T06:59:39;0.10;99.90
6696;DHT22;3385;48.928;10.330;2022-12-20T07:02:04;0.20;99.90
6696;DHT22;3385;48.928;10.330;2022-12-20T07:04:30;0.20;99.90
6696;DHT22;3385;48.928;10.330;2022-12-20T07:06:56;0.30;99.90
6696;DHT22;3385;48.928;10.330;2022-12-20T07:09:22;0.30;99.90
6696;DHT22;3385;48.928;10.330;2022-12-20T07:11:48;0.30;99.90
6696;DHT22;3385;48.928;10.330;2022-12-20T07:14:14;0.30;99.90
6696;DHT22;3385;48.928;10.330;2022-12-20T07:16:39;0.30;99.90
6696;DHT22;3385;48.928;10.330;2022-12-20T07:19:12;0.40;99.90
6696;DHT22;3385;48.928;10.330;2022-12-20T07:21:38;0.40;99.90
6696;DHT22;3385;48.928;10.330;2022-12-20T07:24:05;0.40;99.90
6696;DHT22;3385;48.928;10.330;2022-12-20T07:26:31;0.30;99.90
6696;DHT22;3385;48.928;10.330;2022-12-20T07:28:56;0.40;99.90
6696;DHT22;3385;48.928;10.330;2022-12-20T07:31:22;0.40;99.90
6696;DHT22;3385;48.928;10.330;2022-12-20T07:33:48;0.50;99.90
6696;DHT22;3385;48.928;10.330;2022-12-20T07:36:14;0.50;99.90
6696;DHT22;3385;48.928;10.330;2022-12-20T07:38:43;0.50;99.90
6696;DHT22;3385;48.928;10.330;2022-12-20T07:41:10;0.50;99.90
6696;DHT22;3385;48.928;10.330;2022-12-20T07:43:36;0.50;99.90
6696;DHT22;3385;48.928;10.330;2022-12-20T07:46:03;0.60;99.90
6696;DHT22;3385;48.928;10.330;2022-12-20T07:48:29;0.60;99.90
6696;DHT22;3385;48.928;10.330;2022-12-20T07:51:00;0.60;99.90
6696;DHT22;3385;48.928;10.330;2022-12-20T07:53:27;0.60;99.90
6696;DHT22;3385;48.928;10.330;2022-12-20T07:55:54;0.70;99.90
6696;DHT22;3385;48.928;10.330;2022-12-20T07:58:21;0.70;99.90
6696;DHT22;3385;48.928;10.330;2022-12-20T08:00:47;0.70;99.90
6696;DHT22;3385;48.928;10.330;2022-12-20T08:03:23;0.70;99.90
6696;DHT22;3385;48.928;10.330;2022-12-20T08:05:53;0.70;99.90
6696;DHT22;3385;48.928;10.330;2022-12-20T08:08:20;0.70;99.90
6696;DHT22;3385;48.928;10.330;2022-12-20T08:10:47;0.70;99.90
6696;DHT22;3385;48.928;10.330;2022-12-20T08:13:14;0.70;99.90
6696;DHT22;3385;48.928;10.330;2022-12-20T08:15:40;0.70;99.90
6696;DHT22;3385;48.928;10.330;2022-12-20T08:18:06;0.70;99.90
6696;DHT22;3385;48.928;10.330;2022-12-20T08:20:32;0.80;99.90
6696;DHT22;3385;48.928;10.330;2022-12-20T08:22:58;0.80;99.90
6696;DHT22;3385;48.928;10.330;2022-12-20T08:25:23;0.90;99.90
6696;DHT22;3385;48.928;10.330;2022-12-20T08:27:49;0.90;99.90
6696;DHT22;3385;48.928;10.330;2022-12-20T08:30:16;0.90;99.90
6696;DHT22;3385;48.928;10.330;2022-12-20T08:32:41;0.90;99.90
6696;DHT22;3385;48.928;10.330;2022-12-20T08:35:08;3.20;99.90
6696;DHT22;3385;48.928;10.330;2022-12-20T08:37:34;0.90;99.90
6696;DHT22;3385;48.928;10.330;2022-12-20T08:39:59;0.00;99.90
6696;DHT22;3385;48.928;10.330;2022-12-20T08:42:26;1.00;99.90
6696;DHT22;3385;48.928;10.330;2022-12-20T08:44:52;1.10;99.90
6696;DHT22;3385;48.928;10.330;2022-12-20T08:47:17;1.10;99.90
6696;DHT22;3385;48.928;10.330;2022-12-20T08:49:43;1.10;99.90
6696;DHT22;3385;48.928;10.330;2022-12-20T08:52:09;1.20;99.90
6696;DHT22;3385;48.928;10.330;2022-12-20T08:54:35;1.20;99.90
6696;DHT22;3385;48.928;10.330;2022-12-20T08:57:00;1.20;99.90
6696;DHT22;3385;48.928;10.330;2022-12-20T08:59:26;1.30;99.90
6696;DHT22;3385;48.928;10.330;2022-12-20T09:01:52;1.30;99.90
6696;DHT22;3385;48.928;10.330;2022-12-20T09:04:19;1.30;99.90
6696;DHT22;3385;48.928;10.330;2022-12-20T09:06:45;1.30;99.90
6696;DHT22;3385;48.928;10.330;2022-12-20T09:09:11;1.30;99.90
6696;DHT22;3385;48.928;10.330;2022-12-20T09:11:37;1.40;99.90
6696;DHT22;3385;48.928;10.330;2022-12-20T09:14:02;1.30;99.90
6696;DHT22;3385;48.928;10.330;2022-12-20T09:16:31;1.30;99.90
6696;DHT22;3385;48.928;10.330;2022-12-20T09:18:59;1.30;99.90
6696;DHT22;3385;48.928;10.330;2022-12-20T09:21:25;1.30;99.90
6696;DHT22;3385;48.928;10.330;2022-12-20T09:23:52;1.30;99.90
6696;DHT22;3385;48.928;10.330;2022-12-20T09:26:20;1.30;99.90
6696;DHT22;3385;48.928;10.330;2022-12-20T09:28:47;1.40;99.90
6696;DHT22;3385;48.928;10.330;2022-12-20T09:31:15;1.40;99.90
6696;DHT22;3385;48.928;10.330;2022-12-20T09:33:42;1.50;99.90
6696;DHT22;3385;48.928;10.330;2022-12-20T09:36:18;1.50;99.90
6696;DHT22;3385;48.928;10.330;2022-12-20T09:38:47;1.50;99.90
6696;DHT22;3385;48.928;10.330;2022-12-20T09:43:50;1.60;99.90
6696;DHT22;3385;48.928;10.330;2022-12-20T09:46:16;1.70;99.90
6696;DHT22;3385;48.928;10.330;2022-12-20T09:48:43;1.90;99.90
6696;DHT22;3385;48.928;10.330;2022-12-20T09:56:17;1.90;99.90
6696;DHT22;3385;48.928;10.330;2022-12-20T10:01:31;2.10;99.90
6696;DHT22;3385;48.928;10.330;2022-12-20T10:04:00;2.10;99.90
6696;DHT22;3385;48.928;10.330;2022-12-20T10:09:03;2.20;99.90
6696;DHT22;3385;48.928;10.330;2022-12-20T10:16:59;2.20;99.90
6696;DHT22;3385;48.928;10.330;2022-12-20T10:22:57;2.30;99.90
6696;DHT22;3385;48.928;10.330;2022-12-20T10:25:33;2.30;99.90
6696;DHT22;3385;48.928;10.330;2022-12-20T10:28:04;2.30;99.90
6696;DHT22;3385;48.928;10.330;2022-12-20T10:30:34;2.30;99.90
6696;DHT22;3385;48.928;10.330;2022-12-20T10:33:02;2.40;99.90
6696;DHT22;3385;48.928;10.330;2022-12-20T10:35:28;2.50;99.90
6696;DHT22;3385;48.928;10.330;2022-12-20T10:38:09;2.60;99.90
6696;DHT22;3385;48.928;10.330;2022-12-20T10:43:20;2.60;99.90
6696;DHT22;3385;48.928;10.330;2022-12-20T10:46:02;2.70;99.90
6696;DHT22;3385;48.928;10.330;2022-12-20T10:48:29;2.90;99.90
6696;DHT22;3385;48.928;10.330;2022-12-20T10:51:01;3.00;99.90
6696;DHT22;3385;48.928;10.330;2022-12-20T10:53:29;4.20;99.90
6696;DHT22;3385;48.928;10.330;2022-12-20T10:58:36;3.60;99.90
6696;DHT22;3385;48.928;10.330;2022-12-20T11:01:14;3.60;99.90
6696;DHT22;3385;48.928;10.330;2022-12-20T11:06:45;3.30;99.90
6696;DHT22;3385;48.928;10.330;2022-12-20T11:09:31;3.40;99.90
6696;DHT22;3385;48.928;10.330;2022-12-20T11:12:12;3.40;99.90
6696;DHT22;3385;48.928;10.330;2022-12-20T11:14:39;3.70;99.90
6696;DHT22;3385;48.928;10.330;2022-12-20T11:17:31;4.20;99.90
6696;DHT22;3385;48.928;10.330;2022-12-20T11:23:11;5.00;99.90
6696;DHT22;3385;48.928;10.330;2022-12-20T11:26:21;5.90;99.90
6696;DHT22;3385;48.928;10.330;2022-12-20T11:34:18;5.40;99.90
6696;DHT22;3385;48.928;10.330;2022-12-20T11:45:06;3.90;99.90
6696;DHT22;3385;48.928;10.330;2022-12-20T11:50:41;3.70;99.90
6696;DHT22;3385;48.928;10.330;2022-12-20T11:53:24;3.50;99.90
6696;DHT22;3385;48.928;10.330;2022-12-20T11:55:53;3.40;99.90
6696;DHT22;3385;48.928;10.330;2022-12-20T12:01:08;3.20;99.90
6696;DHT22;3385;48.928;10.330;2022-12-20T12:03:36;3.20;99.90
6696;DHT22;3385;48.928;10.330;2022-12-20T12:06:08;3.20;99.90
6696;DHT22;3385;48.928;10.330;2022-12-20T12:11:51;3.20;99.90
6696;DHT22;3385;48.928;10.330;2022-12-20T12:14:32;3.20;99.90
6696;DHT22;3385;48.928;10.330;2022-12-20T12:17:06;3.20;99.90
6696;DHT22;3385;48.928;10.330;2022-12-20T12:19:36;3.30;99.90
6696;DHT22;3385;48.928;10.330;2022-12-20T12:22:10;3.30;99.90
6696;DHT22;3385;48.928;10.330;2022-12-20T12:24:44;3.50;99.90
6696;DHT22;3385;48.928;10.330;2022-12-20T12:27:23;3.50;99.90
6696;DHT22;3385;48.928;10.330;2022-12-20T12:29:51;3.50;99.90
6696;DHT22;3385;48.928;10.330;2022-12-20T12:46:23;3.10;99.90
6696;DHT22;3385;48.928;10.330;2022-12-20T12:48:55;3.00;99.90
6696;DHT22;3385;48.928;10.330;2022-12-20T12:51:37;2.90;99.90
6696;DHT22;3385;48.928;10.330;2022-12-20T12:54:26;2.80;99.90
6696;DHT22;3385;48.928;10.330;2022-12-20T12:57:02;2.90;99.90
6696;DHT22;3385;48.928;10.330;2022-12-20T13:04:52;2.90;99.90
6696;DHT22;3385;48.928;10.330;2022-12-20T13:33:45;3.00;99.90
6696;DHT22;3385;48.928;10.330;2022-12-20T13:41:24;2.90;99.90
6696;DHT22;3385;48.928;10.330;2022-12-20T13:43:51;2.90;99.90
6696;DHT22;3385;48.928;10.330;2022-12-20T13:46:34;2.80;99.90
6696;DHT22;3385;48.928;10.330;2022-12-20T13:49:09;2.80;99.90
6696;DHT22;3385;48.928;10.330;2022-12-20T13:51:36;2.90;99.90
6696;DHT22;3385;48.928;10.330;2022-12-20T13:54:03;2.90;99.90
6696;DHT22;3385;48.928;10.330;2022-12-20T13:56:45;2.90;99.90
6696;DHT22;3385;48.928;10.330;2022-12-20T13:59:23;3.00;99.90
6696;DHT22;3385;48.928;10.330;2022-12-20T14:01:54;3.00;99.90
6696;DHT22;3385;48.928;10.330;2022-12-20T14:04:21;3.00;99.90
6696;DHT22;3385;48.928;10.330;2022-12-20T14:06:57;3.00;99.90
6696;DHT22;3385;48.928;10.330;2022-12-20T14:09:36;2.90;99.90
6696;DHT22;3385;48.928;10.330;2022-12-20T14:12:20;2.80;99.90
6696;DHT22;3385;48.928;10.330;2022-12-20T14:14:48;2.80;99.90
6696;DHT22;3385;48.928;10.330;2022-12-20T14:17:29;2.70;99.90
6696;DHT22;3385;48.928;10.330;2022-12-20T14:22:56;2.60;99.90
6696;DHT22;3385;48.928;10.330;2022-12-20T14:28:36;2.50;99.90
6696;DHT22;3385;48.928;10.330;2022-12-20T14:31:05;2.50;99.90
6696;DHT22;3385;48.928;10.330;2022-12-20T14:33:37;2.40;99.90
6696;DHT22;3385;48.928;10.330;2022-12-20T14:36:19;2.30;99.90
6696;DHT22;3385;48.928;10.330;2022-12-20T14:38:48;2.30;99.90
6696;DHT22;3385;48.928;10.330;2022-12-20T14:41:38;2.30;99.90
6696;DHT22;3385;48.928;10.330;2022-12-20T14:44:17;2.20;99.90
6696;DHT22;3385;48.928;10.330;2022-12-20T14:46:56;2.20;99.90
6696;DHT22;3385;48.928;10.330;2022-12-20T14:49:31;2.10;99.90
6696;DHT22;3385;48.928;10.330;2022-12-20T14:52:13;2.10;99.90
6696;DHT22;3385;48.928;10.330;2022-12-20T14:54:49;2.10;99.90
6696;DHT22;3385;48.928;10.330;2022-12-20T15:02:39;2.10;99.90
6696;DHT22;3385;48.928;10.330;2022-12-20T15:08:28;2.00;99.90
6696;DHT22;3385;48.928;10.330;2022-12-20T15:13:40;2.00;99.90
6696;DHT22;3385;48.928;10.330;2022-12-20T15:16:18;2.00;99.90
6696;DHT22;3385;48.928;10.330;2022-12-20T15:18:51;2.00;99.90
6696;DHT22;3385;48.928;10.330;2022-12-20T15:21:30;1.90;99.90
6696;DHT22;3385;48.928;10.330;2022-12-20T15:23:59;1.90;99.90
6696;DHT22;3385;48.928;10.330;2022-12-20T15:26:27;1.90;99.90
6696;DHT22;3385;48.928;10.330;2022-12-20T15:28:54;1.90;99.90
6696;DHT22;3385;48.928;10.330;2022-12-20T15:31:22;1.90;99.90
6696;DHT22;3385;48.928;10.330;2022-12-20T15:33:51;1.90;99.90
6696;DHT22;3385;48.928;10.330;2022-12-20T15:36:21;1.90;99.90
6696;DHT22;3385;48.928;10.330;2022-12-20T15:38:48;1.90;99.90
6696;DHT22;3385;48.928;10.330;2022-12-20T15:41:32;1.90;99.90
6696;DHT22;3385;48.928;10.330;2022-12-20T15:44:02;2.00;99.90
6696;DHT22;3385;48.928;10.330;2022-12-20T15:46:29;2.00;99.90
6696;DHT22;3385;48.928;10.330;2022-12-20T15:48:56;1.90;99.90
6696;DHT22;3385;48.928;10.330;2022-12-20T15:51:36;2.00;99.90
6696;DHT22;3385;48.928;10.330;2022-12-20T15:54:04;2.00;99.90
6696;DHT22;3385;48.928;10.330;2022-12-20T15:56:31;1.90;99.90
6696;DHT22;3385;48.928;10.330;2022-12-20T15:58:57;2.00;99.90
6696;DHT22;3385;48.928;10.330;2022-12-20T16:01:34;2.10;99.90
6696;DHT22;3385;48.928;10.330;2022-12-20T16:04:00;2.00;99.90
6696;DHT22;3385;48.928;10.330;2022-12-20T16:06:26;2.10;99.90
6696;DHT22;3385;48.928;10.330;2022-12-20T16:08:52;2.10;99.90
6696;DHT22;3385;48.928;10.330;2022-12-20T16:11:22;2.10;99.90
6696;DHT22;3385;48.928;10.330;2022-12-20T16:13:48;2.00;99.90
6696;DHT22;3385;48.928;10.330;2022-12-20T16:16:20;1.90;99.90
6696;DHT22;3385;48.928;10.330;2022-12-20T16:18:46;2.00;99.90
6696;DHT22;3385;48.928;10.330;2022-12-20T16:21:17;1.90;99.90
6696;DHT22;3385;48.928;10.330;2022-12-20T16:23:44;1.80;99.90
6696;DHT22;3385;48.928;10.330;2022-12-20T16:26:14;1.70;99.90
6696;DHT22;3385;48.928;10.330;2022-12-20T16:28:41;1.70;99.90
6696;DHT22;3385;48.928;10.330;2022-12-20T16:31:16;1.70;99.90
6696;DHT22;3385;48.928;10.330;2022-12-20T16:33:44;1.70;99.90
6696;DHT22;3385;48.928;10.330;2022-12-20T16:36:11;1.70;99.90
6696;DHT22;3385;48.928;10.330;2022-12-20T16:38:36;1.70;99.90
6696;DHT22;3385;48.928;10.330;2022-12-20T16:41:12;1.60;99.90
6696;DHT22;3385;48.928;10.330;2022-12-20T16:43:38;1.60;99.90
6696;DHT22;3385;48.928;10.330;2022-12-20T16:46:04;1.60;99.90
6696;DHT22;3385;48.928;10.330;2022-12-20T16:48:30;1.60;99.90
6696;DHT22;3385;48.928;10.330;2022-12-20T16:50:56;1.60;99.90
6696;DHT22;3385;48.928;10.330;2022-12-20T16:53:23;1.70;99.90
6696;DHT22;3385;48.928;10.330;2022-12-20T16:55:48;1.80;99.90
6696;DHT22;3385;48.928;10.330;2022-12-20T16:58:14;1.90;99.90
6696;DHT22;3385;48.928;10.330;2022-12-20T17:00:40;1.90;99.90
6696;DHT22;3385;48.928;10.330;2022-12-20T17:03:05;1.90;99.90
6696;DHT22;3385;48.928;10.330;2022-12-20T17:05:34;1.90;99.90
6696;DHT22;3385;48.928;10.330;2022-12-20T17:08:01;2.00;99.90
6696;DHT22;3385;48.928;10.330;2022-12-20T17:10:27;2.10;99.90
6696;DHT22;3385;48.928;10.330;2022-12-20T17:12:55;2.20;99.90
6696;DHT22;3385;48.928;10.330;2022-12-20T17:15:24;2.30;99.90
6696;DHT22;3385;48.928;10.330;2022-12-20T17:17:50;2.40;99.90
6696;DHT22;3385;48.928;10.330;2022-12-20T17:20:17;2.60;99.90
6696;DHT22;3385;48.928;10.330;2022-12-20T17:22:46;2.70;99.90
6696;DHT22;3385;48.928;10.330;2022-12-20T17:25:31;3.00;99.90
6696;DHT22;3385;48.928;10.330;2022-12-20T17:27:57;3.20;99.90
6696;DHT22;3385;48.928;10.330;2022-12-20T17:30:24;3.30;99.90
6696;DHT22;3385;48.928;10.330;2022-12-20T17:32:50;3.50;99.90
6696;DHT22;3385;48.928;10.330;2022-12-20T17:35:28;3.40;99.90
6696;DHT22;3385;48.928;10.330;2022-12-20T17:37:58;3.40;99.90
6696;DHT22;3385;48.928;10.330;2022-12-20T17:40:25;3.40;99.90
6696;DHT22;3385;48.928;10.330;2022-12-20T17:42:52;3.60;99.90
6696;DHT22;3385;48.928;10.330;2022-12-20T17:45:21;3.70;99.90
6696;DHT22;3385;48.928;10.330;2022-12-20T17:47:46;3.80;99.90
6696;DHT22;3385;48.928;10.330;2022-12-20T17:50:14;4.00;99.90
6696;DHT22;3385;48.928;10.330;2022-12-20T17:52:40;4.10;99.90
6696;DHT22;3385;48.928;10.330;2022-12-20T17:55:08;4.20;99.90
6696;DHT22;3385;48.928;10.330;2022-12-20T17:57:35;4.20;99.90
6696;DHT22;3385;48.928;10.330;2022-12-20T18:00:02;4.20;99.90
6696;DHT22;3385;48.928;10.330;2022-12-20T18:02:28;4.10;99.90
6696;DHT22;3385;48.928;10.330;2022-12-20T18:04:56;4.10;99.90
6696;DHT22;3385;48.928;10.330;2022-12-20T18:07:22;4.00;99.90
6696;DHT22;3385;48.928;10.330;2022-12-20T18:09:48;4.00;99.90
6696;DHT22;3385;48.928;10.330;2022-12-20T18:12:14;4.00;99.90
6696;DHT22;3385;48.928;10.330;2022-12-20T18:14:40;4.10;99.90
6696;DHT22;3385;48.928;10.330;2022-12-20T18:17:05;4.20;99.90
6696;DHT22;3385;48.928;10.330;2022-12-20T18:19:31;4.20;99.90
6696;DHT22;3385;48.928;10.330;2022-12-20T18:21:57;4.30;99.90
6696;DHT22;3385;48.928;10.330;2022-12-20T18:24:22;4.30;99.90